METAR Data
IDs: Format: Raw Decoded Include TAF

Data at: 1342 UTC 14 Dec 2019

PASI 141253Z 10005KT 9SM CLR 01/00 A3001 RMK AO2 SLP161 T00110000
PASI 141153Z 10003KT 9SM CLR 01/00 A3001 RMK AO2 SLP162 70031 T00060000 10039 20006 51004
PASI 141053Z 08003KT 10SM FEW033 02/01 A3001 RMK AO2 SLP162 T00170006
PASI 140953Z 07003KT 9SM FEW030 BKN050 02/01 A3000 RMK AO2 SLP159 T00220011
PASI 140853Z 08003KT 10SM BKN047 03/01 A3000 RMK AO2 SLP157 T00280011 400610028 53010
PASI 140753Z 11004KT 10SM OVC043 04/02 A2999 RMK AO2 SLP154 T00390017
PASI 140653Z 10006KT 10SM BKN041 OVC048 04/02 A2997 RMK AO2 SLP150 T00390017
PASI 140553Z 09006KT 10SM FEW030 OVC050 03/02 A2997 RMK AO2 DZB39E51 SLP147 P0000 60004 T00330017 10050 20033 53006
PASI 140453Z 12006KT 10SM SCT021 BKN038 04/02 A2995 RMK AO2 SLP143 T00390017
PASI 140450Z 12006KT 10SM SCT021 BKN038 04/02 A2995 RMK AO2
PASI 140422Z 08007KT 10SM BKN021 OVC038 04/02 A2995 RMK AO2 T00440022
PASI 140353Z 10008KT 10SM FEW026 BKN036 BKN060 04/02 A2995 RMK AO2 RAE17 SLP141 P0000 T00440022
PASI 140302Z 09008KT 8SM -RA SCT026 BKN036 04/02 A2994 RMK AO2 P0000 T00390022
PASI 140253Z 10008KT 8SM -RA BKN026 BKN046 04/02 A2994 RMK AO2 RAB25 SLP138 P0000 60004 T00440022 51010
PASI 140153Z 10007KT 10SM BKN026 OVC050 04/03 A2993 RMK AO2 RAE53 SLP136 P0003 T00440028
PASI 140128Z 16008KT 6SM -RA BR BKN026 OVC040 04/03 A2993 RMK AO2 P0001 T00440028
PASI 140053Z 10008KT 9SM -RA BKN031 OVC040 05/02 A2992 RMK AO2 RAB29 SLP133 P0001 T00500022
PASI 132353Z 09009KT 9SM BKN030 BKN085 05/03 A2991 RMK AO2 RAE35 SLP128 P0001 60016 T00500028 10056 20039 53006
PASI 132253Z 11008KT 5SM -RA BR BKN030 BKN085 05/03 A2991 RMK AO2 RAB05 SLP127 P0002 T00500028
PASI 132200Z 10014KT 10SM FEW033 SCT070 SCT085 05/02 A2989 RMK AO2 T00500022
PASI 132153Z 11014KT 7SM BKN023 BKN037 06/02 A2989 RMK AO2 RAE01 SLP121 P0000 T00560017
PASI 132053Z 08003KT 5SM -RA BR BKN023 BKN037 05/02 A2989 RMK AO2 SLP122 P0008 60013 T00500022 51007
PASI 131953Z 12009KT 6SM -RA BKN029 OVC033 06/02 A2989 RMK AO2 RAB05 SLP122 P0005 T00560022
PASI 131853Z 13010KT 7SM FEW030 BKN034 OVC045 05/02 A2988 RMK AO2 RAB06E41 SLP117 P0000 T00500022
PASI 131753Z 09012KT 9SM BKN032 BKN038 BKN047 04/02 A2987 RMK AO2 WSHFT 1653 RAB1657E47 SLP114 P0008 60011 T00440017 10061 20044 51014
PASI 131748Z 10011KT 10SM BKN032 BKN038 BKN047 04/02 A2987 RMK AO2 WSHFT 1653 RAB1657E47 P0008
PASI 131711Z 17014G21KT 3SM RA SCT022 BKN028 OVC070 05/02 A2987 RMK AO2 WSHFT 1653 RAB1657 P0003 T00500022
PASI 131653Z 10014KT 10SM SCT041 BKN060 OVC070 06/02 A2984
PASI 131553Z 11010KT 10SM BKN041 06/02 A2983 RMK AO2 SLP100 P0001 T00560017
PASI 131453Z 11010KT 9SM SCT040 05/02 A2984 RMK AO2 RAE21 SLP103 P0001 60002 T00500022 51007
PASI 131353Z 12014KT 7SM -RA SCT035 BKN042 BKN060 06/02 A2983 RMK AO2 RAB13E26B52 SLP102 P0001 T00560017
PASI 131253Z 09006KT 8SM SCT035 BKN048 BKN060 05/02 A2982 RMK AO2 SLP097 T00500022
PASI 131153Z 10007KT 8SM FEW030 BKN039 BKN046 06/02 A2981 RMK AO2 SLP096 60002 70033 T00560017 10072 20050 51021
PASI 131053Z 12009KT 8SM FEW029 BKN035 BKN070 06/03 A2980 RMK AO2 RAB39E50 SLP090 P0000 T00560028
PASI 130953Z 13012KT 8SM BKN036 BKN046 BKN060 06/02 A2977 RMK AO2 RAE0856 SLP082 P0000 T00610017
PASI 130853Z 11012KT 7SM -RA SCT031 BKN047 06/02 A2975 RMK AO2 RAE06B37 SLP074 P0001 60002 T00610022 400890050 51019
PASI 130753Z 14012KT 6SM -RA BKN031 OVC055 07/03 A2973 RMK AO2 RAB22E38B51 TSB22E44 SLP066 TS MOV N P0001 T00670028
PASI 130750Z 12010KT 8SM OVC031 07/02 A2973 RMK AO2 RAB22E38 TSB22E44 TS MOV N P0000
PASI 130728Z 15010KT 6SM -TSRA FEW031 BKN039 OVC070 07/03 A2971 RMK AO2 RAB22 TSB22 OCNL LTGCC S TS S MOV NW P0000 T00670028
PASI 130653Z 12009KT 8SM FEW028 OVC035 07/02 A2969 RMK AO2 RAE06B40E49 SLP055 P0000 T00670022
PASI 130632Z AUTO 11009KT 8SM SCT026 OVC035 07/02 A2968 RMK AO2 RAE06 P0000 T00720022 TSNO
PASI 130553Z AUTO 09004KT 7SM -RA BKN023 OVC033 06/03 A2966 RMK AO2 RAB08E25B51 SLP045 P0005 60015 T00610033 10072 20056 51037 TSNO
PASI 130526Z AUTO 11009KT 9SM FEW025 OVC033 06/03 A2966 RMK AO2 RAB08E25 P0004 T00610033 TSNO
PASI 130515Z AUTO 13010G18KT 3SM -RA FEW017 BKN025 OVC033 06/03 A2965 RMK AO2 RAB08 P0004 T00610033 TSNO
PASI 130453Z AUTO 07008KT 8SM FEW027 BKN035 OVC050 06/04 A2963 RMK AO2 RAE0355B12E40 SLP033 P0005 T00610039 TSNO
PASI 130439Z AUTO 10006KT 8SM -RA FEW015 SCT027 OVC038 07/03 A2962 RMK AO2 RAE0355B12 P0005 T00670033 TSNO
PASI 130353Z 16009KT 8SM -RA FEW016 BKN024 OVC033 07/04 A2960 RMK AO2 RAB19 SLP024 P0003 T00720039
PASI 130329Z 14011KT 10SM -RA BKN022 BKN030 OVC080 07/03 A2958 RMK AO2 RAB19 P0000 T00720033
PASI 130253Z 11011KT 10SM SCT023 SCT028 OVC042 07/03 A2956 RMK AO2 RAE17B28E49 SLP008 P0000 60002 T00670033 53024
PASI 130225Z 11011KT 10SM BKN025 BKN033 OVC040 07/03 A2954 RMK AO2 RAE17 P0000 T00720033
PASI 130153Z 12009KT 5SM -RA FEW026 BKN034 OVC043 07/04 A2953 RMK AO2 RAB31 SLP999 P0002 T00720039